Ouray, Colorado
Current Conditions -  °F | °C
As of 2:35 AM on Monday 20 Oct 2014 (Local Time) from KTEX Reporting Station
Clear Clear  
Wind Chill: 39°   Ceiling: Unl
Heat Index: 42°   Visibility: 10mi
Dew Point: 37°   Wind: 5mph
Humidity: 82%   Direction: 130°SE
Pressure: 30.33"   Gusts: NA
Location:  38.02°N, 107.67°W
Report Text: KTEX 200835Z AUTO 13004KT 10SM CLR 05/03 A3033 RMK AO2 T00530025
Loading
Personal Weather Stations






























Interactive Weather Map
Tropical Storm Tracking
New forecast layout! Learn more

10-Day Weather Forecast

Advertisements
Track Severe Weather on mobile